Camacan, Brazil
Current Conditions -  °F | °C
As of 5:35 PM on Thursday 20 Nov 2014 (Local Time) from SBTC Reporting Station
Broken Clouds Broken Clouds  
Wind Chill: 79°   Ceiling: 6000
Heat Index: 82°   Visibility: 6mi
Dew Point: 72°   Wind: 5mph
Humidity: 78%   Direction: 180°S
Pressure: 29.94"   Gusts: NA
Location:  15.42°S, 39.5°W
Report Text: SBTC 202035Z 18004KT 9999 FEW020 BKN060 26/22 Q1014
Loading
Personal Weather Stations






























Interactive Weather Map New forecast layout! Learn more

10-Day Weather Forecast

Advertisements
Track Severe Weather on mobile